Saipan, Northern Mariana Islands
Current Conditions -  °F | °C
As of 1:54 PM on Sunday 26 Oct 2014 (Local Time) from PGSN Reporting Station
Scattered Clouds Scattered Clouds  
Wind Chill: 84°   Ceiling: Unl
Heat Index: 95°   Visibility: 10mi
Dew Point: 78°   Wind: 12mph
Humidity: 82%   Direction: 80°E
Pressure: 29.85"   Gusts: NA
Location:  15.13°N, 145.7°E
Report Text: PGSN 260354Z 08010KT 10SM SCT020CB 29/26 A2985 RMK AO2 SLP128 VCSH SE CB NE-SW MOV W P0011 T02890256 $
Loading
Personal Weather Stations






























Interactive Weather Map
Tropical Storm Tracking
New forecast layout! Learn more

10-Day Weather Forecast

Advertisements
Track Severe Weather on mobile